createdAt,value
2022-10-09T00:01:04.637Z,2.67
2022-10-09T00:03:31.762Z,2.60
2022-10-09T00:05:58.993Z,2.40
2022-10-09T00:08:26.158Z,2.47
2022-10-09T00:10:53.078Z,2.33
2022-10-09T00:13:20.061Z,2.72
2022-10-09T00:15:47.854Z,2.60
2022-10-09T00:18:18.304Z,2.25
2022-10-09T00:20:47.028Z,2.55
2022-10-09T00:23:16.527Z,2.08
2022-10-09T00:25:57.188Z,3.10
2022-10-09T00:28:25.692Z,2.40
2022-10-09T00:30:52.879Z,2.30
2022-10-09T00:33:20.573Z,2.38
2022-10-09T00:35:47.980Z,2.30
2022-10-09T00:38:15.558Z,2.30
2022-10-09T00:40:42.430Z,2.35
2022-10-09T00:43:18.778Z,2.55
2022-10-09T00:45:53.990Z,2.22
2022-10-09T00:48:22.440Z,2.13
2022-10-09T00:50:58.163Z,2.28
2022-10-09T00:53:28.596Z,2.30
2022-10-09T00:55:55.883Z,1.88
2022-10-09T00:58:24.396Z,1.88
2022-10-09T01:00:51.975Z,2.50
2022-10-09T01:03:18.887Z,2.17
2022-10-09T01:06:05.154Z,1.95
2022-10-09T01:08:36.467Z,2.20
2022-10-09T01:11:21.717Z,2.35
2022-10-09T01:14:00.673Z,1.95
2022-10-09T01:16:31.044Z,2.28
2022-10-09T01:19:25.365Z,2.10
2022-10-09T01:22:14.283Z,2.17
2022-10-09T01:25:05.422Z,1.90
2022-10-09T01:27:34.449Z,2.17
2022-10-09T01:30:08.673Z,1.95
2022-10-09T01:32:39.327Z,1.95
2022-10-09T01:35:08.425Z,1.90
2022-10-09T01:40:05.770Z,1.90
2022-10-09T01:42:32.980Z,2.25
2022-10-09T01:44:59.820Z,1.85
2022-10-09T01:47:27.442Z,1.83
2022-10-09T01:50:09.660Z,1.98
2022-10-09T01:52:41.456Z,2.00
2022-10-09T01:55:17.373Z,1.77
2022-10-09T01:57:58.200Z,1.90
2022-10-09T02:00:26.469Z,2.30
2022-10-09T02:02:54.747Z,2.00
2022-10-09T02:05:26.417Z,1.73
2022-10-09T02:07:55.188Z,1.75
2022-10-09T02:10:23.306Z,1.90
2022-10-09T02:12:55.908Z,2.28
2022-10-09T02:15:31.574Z,1.80
2022-10-09T02:18:11.145Z,1.90
2022-10-09T02:20:41.434Z,2.00
2022-10-09T02:23:09.314Z,1.83
2022-10-09T02:25:36.526Z,1.83
2022-10-09T02:28:04.317Z,1.95
2022-10-09T02:30:44.057Z,2.35
2022-10-09T02:33:10.984Z,1.90
2022-10-09T02:35:38.401Z,2.35
2022-10-09T02:38:05.420Z,1.90
2022-10-09T02:40:32.298Z,1.73
2022-10-09T02:42:59.073Z,2.10
2022-10-09T02:45:25.919Z,1.70
2022-10-09T02:47:53.876Z,2.20
2022-10-09T02:50:20.689Z,2.00
2022-10-09T02:52:47.707Z,2.03
2022-10-09T02:55:14.784Z,2.33
2022-10-09T02:57:41.565Z,2.20
2022-10-09T03:00:08.985Z,2.58
2022-10-09T03:02:35.836Z,2.55
2022-10-09T03:05:02.868Z,3.03
2022-10-09T03:07:29.714Z,2.30
2022-10-09T03:09:58.266Z,2.85
2022-10-09T03:12:25.093Z,2.00
2022-10-09T03:14:51.985Z,2.67
2022-10-09T03:17:18.860Z,2.67
2022-10-09T03:19:45.698Z,2.25
2022-10-09T03:22:12.557Z,2.40
2022-10-09T03:24:39.437Z,2.30
2022-10-09T03:27:06.258Z,2.20
2022-10-09T03:29:33.066Z,2.15
2022-10-09T03:31:59.954Z,2.20
2022-10-09T03:34:26.935Z,2.15
2022-10-09T03:36:53.931Z,2.20
2022-10-09T03:39:20.665Z,2.13
2022-10-09T03:41:47.615Z,2.40
2022-10-09T03:44:14.457Z,2.80
2022-10-09T03:46:41.745Z,2.40
2022-10-09T03:49:09.100Z,2.33
2022-10-09T03:51:35.986Z,1.85
2022-10-09T03:54:03.308Z,2.33
2022-10-09T03:56:30.807Z,2.53
2022-10-09T03:58:58.138Z,2.13
2022-10-09T04:01:25.491Z,2.50
2022-10-09T04:03:52.668Z,2.35
2022-10-09T04:06:20.106Z,2.05
2022-10-09T04:08:47.305Z,2.50
2022-10-09T04:11:14.508Z,2.30
2022-10-09T04:13:41.711Z,2.10
2022-10-09T04:16:12.679Z,2.28
2022-10-09T04:18:44.169Z,2.95
2022-10-09T04:21:13.065Z,2.97
2022-10-09T04:23:40.300Z,2.90
2022-10-09T04:26:07.527Z,3.33
2022-10-09T04:28:34.819Z,3.38
2022-10-09T04:31:02.436Z,2.78
2022-10-09T04:33:29.754Z,3.53
2022-10-09T04:35:57.335Z,3.20
2022-10-09T04:38:24.890Z,3.30
2022-10-09T04:40:59.796Z,3.50
2022-10-09T04:43:27.433Z,3.45
2022-10-09T04:45:54.876Z,3.55
2022-10-09T04:48:22.135Z,3.08
2022-10-09T04:50:49.436Z,3.60
2022-10-09T04:53:16.708Z,3.55
2022-10-09T04:55:44.586Z,3.63
2022-10-09T04:58:12.927Z,3.40
2022-10-09T05:00:42.005Z,3.67
2022-10-09T05:03:09.345Z,3.95
2022-10-09T05:05:36.625Z,3.90
2022-10-09T05:08:03.849Z,4.63
2022-10-09T05:10:32.309Z,4.90
2022-10-09T05:13:00.091Z,4.18
2022-10-09T05:15:27.336Z,4.10
2022-10-09T05:17:54.547Z,3.95
2022-10-09T05:20:21.799Z,3.88
2022-10-09T05:22:49.376Z,3.65
2022-10-09T05:25:16.706Z,3.72
2022-10-09T05:27:44.012Z,4.00
2022-10-09T05:30:11.527Z,3.50
2022-10-09T05:32:38.747Z,3.70
2022-10-09T05:35:05.976Z,3.90
2022-10-09T05:37:33.262Z,3.72
2022-10-09T05:40:00.519Z,3.58
2022-10-09T05:42:27.732Z,4.00
2022-10-09T05:44:54.924Z,3.60
2022-10-09T05:47:22.132Z,3.60
2022-10-09T05:49:49.358Z,3.55
2022-10-09T05:52:16.646Z,3.70
2022-10-09T05:54:43.855Z,3.58
2022-10-09T05:57:11.040Z,3.15
2022-10-09T05:59:38.247Z,3.80
2022-10-09T06:02:05.614Z,3.58
2022-10-09T06:04:32.937Z,3.63
2022-10-09T06:07:00.162Z,3.35
2022-10-09T06:09:27.850Z,3.83
2022-10-09T06:11:55.538Z,3.70
2022-10-09T06:14:24.329Z,3.60
2022-10-09T06:16:51.630Z,3.47
2022-10-09T06:19:19.945Z,3.47
2022-10-09T06:21:47.736Z,3.60
2022-10-09T06:24:25.836Z,3.65
2022-10-09T06:26:55.843Z,3.53
2022-10-09T06:29:23.101Z,3.92
2022-10-09T06:31:50.311Z,3.67
2022-10-09T06:34:17.581Z,4.15
2022-10-09T06:36:44.857Z,3.67
2022-10-09T06:39:12.097Z,3.70
2022-10-09T06:41:39.382Z,3.70
2022-10-09T06:44:28.675Z,4.07
2022-10-09T06:46:56.026Z,3.72
2022-10-09T06:49:24.231Z,3.45
2022-10-09T06:51:51.449Z,4.28
2022-10-09T06:54:18.696Z,3.30
2022-10-09T06:56:45.969Z,3.80
2022-10-09T06:59:13.571Z,4.10
2022-10-09T07:01:41.248Z,3.78
2022-10-09T07:04:11.354Z,3.88
2022-10-09T07:06:41.876Z,3.53
2022-10-09T07:09:11.353Z,3.85
2022-10-09T07:11:48.955Z,4.13
2022-10-09T07:14:16.836Z,4.30
2022-10-09T07:16:46.334Z,3.60
2022-10-09T07:21:43.549Z,3.60
2022-10-09T07:24:11.783Z,3.97
2022-10-09T07:26:41.549Z,4.15
2022-10-09T07:29:10.593Z,5.22
2022-10-09T07:31:37.897Z,4.93
2022-10-09T07:34:06.314Z,4.75
2022-10-09T07:36:33.606Z,4.78
2022-10-09T07:39:01.096Z,5.75
2022-10-09T07:41:29.709Z,5.03
2022-10-09T07:43:57.525Z,4.75
2022-10-09T07:46:30.768Z,4.35
2022-10-09T07:51:29.093Z,4.30
2022-10-09T07:53:57.403Z,4.78
2022-10-09T07:56:29.174Z,4.63
2022-10-09T07:58:58.781Z,4.70
2022-10-09T08:01:28.198Z,4.78
2022-10-09T08:03:55.803Z,4.28
2022-10-09T08:06:23.459Z,4.32
2022-10-09T08:08:51.556Z,4.43
2022-10-09T08:11:19.670Z,4.40
2022-10-09T08:13:48.093Z,4.20
2022-10-09T08:16:15.870Z,4.35
2022-10-09T08:18:43.130Z,3.75
2022-10-09T08:21:14.727Z,3.95
2022-10-09T08:23:42.373Z,3.65
2022-10-09T08:26:18.045Z,3.50
2022-10-09T08:31:17.289Z,3.55
2022-10-09T08:33:44.808Z,3.83
2022-10-09T08:36:15.149Z,3.30
2022-10-09T08:38:47.935Z,3.38
2022-10-09T08:41:24.074Z,3.40
2022-10-09T08:46:41.134Z,3.60
2022-10-09T08:49:19.811Z,3.30
2022-10-09T08:51:47.156Z,3.38
2022-10-09T08:54:38.274Z,3.33
2022-10-09T08:57:10.747Z,2.88
2022-10-09T08:59:38.014Z,3.30
2022-10-09T09:02:16.113Z,3.25
2022-10-09T09:05:08.018Z,3.50
2022-10-09T09:07:43.706Z,3.50
2022-10-09T09:13:02.005Z,3.20
2022-10-09T09:15:46.978Z,3.03
2022-10-09T09:18:38.493Z,3.47
2022-10-09T09:21:40.504Z,3.22
2022-10-09T09:24:17.785Z,3.53
2022-10-09T09:26:48.095Z,3.55
2022-10-09T09:29:18.530Z,4.63
2022-10-09T09:31:48.149Z,4.00
2022-10-09T09:34:18.163Z,3.67
2022-10-09T09:37:01.267Z,3.53
2022-10-09T09:42:21.014Z,3.17
2022-10-09T09:44:59.364Z,3.25
2022-10-09T09:47:44.544Z,2.97
2022-10-09T09:50:28.500Z,3.85
2022-10-09T09:53:02.636Z,3.05
2022-10-09T09:55:32.542Z,3.40
2022-10-09T09:58:05.813Z,3.13
2022-10-09T10:00:33.243Z,3.00
2022-10-09T10:03:15.499Z,2.90
2022-10-09T10:05:44.332Z,3.08
2022-10-09T10:08:32.189Z,2.97
2022-10-09T10:11:01.174Z,2.65
2022-10-09T10:13:28.365Z,2.70
2022-10-09T10:15:57.240Z,3.03
2022-10-09T10:18:26.602Z,3.00
2022-10-09T10:20:56.552Z,2.95
2022-10-09T10:23:23.832Z,2.85
2022-10-09T10:25:54.287Z,2.60
2022-10-09T10:28:27.977Z,2.97
2022-10-09T10:30:57.299Z,2.72
2022-10-09T10:33:29.900Z,2.90
2022-10-09T10:35:58.887Z,2.90
2022-10-09T10:38:47.059Z,2.50
2022-10-09T10:41:14.225Z,3.40
2022-10-09T10:43:54.583Z,3.00
2022-10-09T10:46:23.906Z,3.05
2022-10-09T10:48:52.170Z,3.05
2022-10-09T10:51:41.618Z,3.08
2022-10-09T10:54:09.154Z,3.20
2022-10-09T10:56:41.426Z,3.33
2022-10-09T10:59:08.657Z,3.20
2022-10-09T11:02:03.165Z,2.50
2022-10-09T11:04:52.646Z,3.00
2022-10-09T11:07:36.725Z,2.60
2022-10-09T11:10:03.978Z,2.70
2022-10-09T11:12:50.845Z,2.90
2022-10-09T11:15:21.298Z,2.60
2022-10-09T11:18:22.363Z,2.70
2022-10-09T11:21:13.485Z,2.50
2022-10-09T11:24:05.078Z,2.70
2022-10-09T11:26:44.002Z,2.60
2022-10-09T11:29:22.317Z,2.70
2022-10-09T11:31:54.671Z,2.97
2022-10-09T11:34:46.991Z,2.78
2022-10-09T11:37:28.418Z,2.45
2022-10-09T11:39:56.609Z,2.88
2022-10-09T11:42:25.105Z,3.08
2022-10-09T11:45:08.969Z,2.60
2022-10-09T11:47:51.149Z,3.10
2022-10-09T11:50:21.979Z,3.15
2022-10-09T11:53:02.430Z,2.67
2022-10-09T11:55:32.229Z,2.67
2022-10-09T11:58:21.714Z,2.60
2022-10-09T12:00:53.887Z,2.45
2022-10-09T12:03:27.671Z,2.42
2022-10-09T12:06:02.965Z,2.80
2022-10-09T12:08:30.401Z,2.65
2022-10-09T12:11:11.654Z,2.65
2022-10-09T12:13:39.155Z,2.45
2022-10-09T12:16:08.127Z,2.40
2022-10-09T12:18:38.616Z,2.40
2022-10-09T12:21:18.473Z,2.30
2022-10-09T12:23:47.261Z,2.40
2022-10-09T12:26:15.270Z,2.50
2022-10-09T12:28:51.965Z,2.65
2022-10-09T12:31:32.436Z,2.20
2022-10-09T12:34:26.655Z,2.45
2022-10-09T12:37:03.860Z,2.55
2022-10-09T12:39:33.768Z,2.15
2022-10-09T12:42:01.244Z,2.53
2022-10-09T12:44:28.532Z,2.78
2022-10-09T12:46:56.037Z,2.75
2022-10-09T12:49:25.742Z,3.00
2022-10-09T12:51:56.479Z,3.03
2022-10-09T12:54:25.285Z,3.20
2022-10-09T12:56:53.681Z,2.60
2022-10-09T12:59:22.467Z,3.00
2022-10-09T13:01:50.834Z,3.58
2022-10-09T13:04:32.674Z,3.50
2022-10-09T13:07:21.662Z,3.33
2022-10-09T13:09:49.345Z,3.50
2022-10-09T13:12:27.936Z,3.10
2022-10-09T13:15:00.442Z,3.33
2022-10-09T13:17:41.497Z,3.08
2022-10-09T13:20:31.369Z,3.33
2022-10-09T13:23:02.766Z,3.20
2022-10-09T13:25:36.142Z,3.42
2022-10-09T13:28:03.903Z,3.63
2022-10-09T13:30:31.323Z,3.65
2022-10-09T13:33:01.713Z,3.97
2022-10-09T13:35:29.018Z,4.25
2022-10-09T13:37:56.288Z,3.95
2022-10-09T13:40:23.639Z,3.22
2022-10-09T13:42:54.512Z,3.85
2022-10-09T13:45:21.969Z,3.70
2022-10-09T13:47:49.601Z,3.90
2022-10-09T13:50:17.932Z,4.15
2022-10-09T13:52:45.244Z,3.95
2022-10-09T13:55:12.952Z,3.53
2022-10-09T13:57:40.202Z,3.35
2022-10-09T14:00:07.937Z,3.55
2022-10-09T14:02:40.954Z,3.17
2022-10-09T14:05:08.191Z,2.90
2022-10-09T14:07:35.940Z,3.15
2022-10-09T14:10:04.107Z,3.55
2022-10-09T14:12:31.498Z,3.00
2022-10-09T14:14:58.823Z,3.17
2022-10-09T14:17:26.077Z,2.65
2022-10-09T14:19:53.420Z,2.60
2022-10-09T14:22:20.767Z,2.60
2022-10-09T14:24:47.942Z,2.65
2022-10-09T14:27:15.207Z,3.00
2022-10-09T14:29:42.493Z,2.85
2022-10-09T14:32:09.865Z,2.72
2022-10-09T14:34:37.138Z,2.67
2022-10-09T14:37:13.659Z,2.60
2022-10-09T14:42:14.017Z,2.17
2022-10-09T14:44:41.394Z,2.30
2022-10-09T14:47:08.717Z,2.63
2022-10-09T14:49:35.933Z,2.38
2022-10-09T14:52:03.240Z,2.70
2022-10-09T14:54:30.608Z,2.45
2022-10-09T14:56:57.881Z,2.75
2022-10-09T14:59:25.228Z,2.50
2022-10-09T15:01:52.670Z,2.70
2022-10-09T15:04:19.997Z,2.28
2022-10-09T15:06:47.364Z,2.60
2022-10-09T15:09:14.612Z,2.65
2022-10-09T15:11:41.954Z,3.08
2022-10-09T15:14:09.560Z,3.05
2022-10-09T15:16:36.895Z,2.97
2022-10-09T15:19:05.673Z,2.83
2022-10-09T15:21:34.570Z,2.80
2022-10-09T15:24:02.945Z,2.80
2022-10-09T15:26:32.827Z,2.65
2022-10-09T15:29:02.006Z,2.78
2022-10-09T15:31:47.720Z,2.45
2022-10-09T15:34:17.257Z,2.85
2022-10-09T15:36:45.878Z,2.58
2022-10-09T15:39:13.829Z,2.83
2022-10-09T15:41:43.738Z,2.55
2022-10-09T15:44:20.842Z,2.70
2022-10-09T15:46:49.069Z,2.97
2022-10-09T15:49:16.424Z,2.65
2022-10-09T15:51:43.717Z,2.47
2022-10-09T15:54:12.150Z,2.50
2022-10-09T15:56:40.505Z,2.50
2022-10-09T15:59:08.400Z,2.70
2022-10-09T16:01:35.674Z,2.42
2022-10-09T16:04:02.969Z,2.47
2022-10-09T16:06:30.164Z,1.98
2022-10-09T16:08:58.715Z,2.20
2022-10-09T16:11:26.807Z,2.15
2022-10-09T16:13:54.767Z,2.20
2022-10-09T16:16:23.763Z,2.00
2022-10-09T16:18:51.233Z,2.03
2022-10-09T16:21:20.012Z,1.95
2022-10-09T16:23:47.452Z,1.95
2022-10-09T16:26:15.829Z,1.98
2022-10-09T16:28:43.486Z,2.13
2022-10-09T16:31:18.102Z,1.92
2022-10-09T16:33:45.429Z,2.17
2022-10-09T16:36:13.685Z,2.30
2022-10-09T16:38:43.481Z,2.30
2022-10-09T16:41:14.352Z,2.25
2022-10-09T16:43:41.726Z,2.92
2022-10-09T16:46:09.863Z,2.40
2022-10-09T16:48:37.220Z,3.20
2022-10-09T16:51:08.810Z,2.63
2022-10-09T16:53:36.154Z,2.88
2022-10-09T16:56:12.474Z,2.92
2022-10-09T16:58:40.379Z,3.30
2022-10-09T17:01:10.032Z,2.97
2022-10-09T17:03:40.245Z,2.90
2022-10-09T17:06:12.398Z,3.55
2022-10-09T17:08:40.014Z,3.60
2022-10-09T17:11:11.347Z,3.05
2022-10-09T17:13:39.008Z,3.47
2022-10-09T17:16:17.116Z,3.38
2022-10-09T17:18:48.799Z,3.53
2022-10-09T17:21:17.572Z,3.97
2022-10-09T17:23:45.367Z,3.58
2022-10-09T17:26:18.730Z,3.50
2022-10-09T17:28:46.732Z,3.78
2022-10-09T17:31:16.276Z,3.45
2022-10-09T17:33:46.014Z,3.42
2022-10-09T17:36:18.428Z,3.53
2022-10-09T17:38:45.969Z,3.40
2022-10-09T17:41:14.686Z,3.80
2022-10-09T17:43:42.405Z,3.13
2022-10-09T17:46:09.956Z,3.13
2022-10-09T17:48:44.033Z,3.75
2022-10-09T17:51:15.335Z,3.65
2022-10-09T17:53:42.788Z,3.95
2022-10-09T17:56:10.600Z,3.40
2022-10-09T17:58:40.081Z,3.35
2022-10-09T18:01:11.750Z,3.75
2022-10-09T18:03:39.305Z,3.92
2022-10-09T18:06:11.227Z,3.90
2022-10-09T18:08:39.130Z,4.22
2022-10-09T18:11:11.300Z,4.07
2022-10-09T18:13:40.389Z,4.20
2022-10-09T18:16:12.095Z,4.25
2022-10-09T18:18:39.469Z,3.97
2022-10-09T18:21:09.822Z,4.15
2022-10-09T18:23:37.640Z,4.70
2022-10-09T18:26:08.580Z,4.18
2022-10-09T18:28:36.059Z,4.18
2022-10-09T18:31:12.356Z,4.45
2022-10-09T18:33:39.616Z,4.55
2022-10-09T18:36:09.502Z,4.85
2022-10-09T18:38:36.745Z,4.70
2022-10-09T18:41:04.112Z,4.93
2022-10-09T18:43:31.508Z,5.28
2022-10-09T18:46:00.243Z,5.07
2022-10-09T18:48:30.618Z,5.00
2022-10-09T18:50:58.066Z,5.05
2022-10-09T18:53:25.426Z,4.88
2022-10-09T18:55:55.317Z,4.45
2022-10-09T18:58:22.926Z,4.80
2022-10-09T19:00:50.262Z,4.40
2022-10-09T19:03:17.669Z,4.35
2022-10-09T19:05:45.149Z,4.40
2022-10-09T19:08:12.482Z,4.68
2022-10-09T19:10:39.872Z,4.40
2022-10-09T19:13:09.854Z,4.93
2022-10-09T19:15:37.316Z,4.68
2022-10-09T19:18:05.007Z,4.70
2022-10-09T19:20:32.455Z,4.88
2022-10-09T19:22:59.702Z,5.50
2022-10-09T19:25:27.181Z,5.28
2022-10-09T19:27:54.540Z,5.22
2022-10-09T19:30:21.935Z,4.72
2022-10-09T19:32:49.571Z,5.38
2022-10-09T19:35:17.194Z,5.03
2022-10-09T19:37:44.553Z,5.10
2022-10-09T19:40:11.999Z,4.97
2022-10-09T19:42:40.275Z,5.00
2022-10-09T19:45:07.883Z,5.00
2022-10-09T19:47:35.206Z,4.95
2022-10-09T19:50:02.444Z,5.30
2022-10-09T19:52:29.819Z,4.88
2022-10-09T19:54:57.137Z,5.57
2022-10-09T19:57:24.519Z,5.60
2022-10-09T19:59:51.862Z,5.60
2022-10-09T20:02:19.236Z,6.03
2022-10-09T20:04:48.783Z,5.63
2022-10-09T20:07:16.088Z,5.45
2022-10-09T20:09:43.422Z,5.53
2022-10-09T20:12:10.789Z,5.70
2022-10-09T20:14:38.049Z,6.55
2022-10-09T20:17:05.408Z,5.97
2022-10-09T20:19:33.384Z,6.63
2022-10-09T20:22:00.731Z,5.63
2022-10-09T20:24:28.078Z,6.10
2022-10-09T20:26:55.362Z,6.00
2022-10-09T20:29:22.775Z,5.95
2022-10-09T20:31:50.143Z,5.90
2022-10-09T20:34:17.473Z,5.88
2022-10-09T20:36:44.906Z,5.43
2022-10-09T20:39:13.943Z,5.72
2022-10-09T20:41:43.320Z,5.05
2022-10-09T20:44:11.955Z,5.13
2022-10-09T20:46:40.194Z,5.95
2022-10-09T20:49:09.515Z,5.70
2022-10-09T20:51:37.881Z,5.60
2022-10-09T20:54:06.547Z,6.53
2022-10-09T20:56:34.365Z,6.63
2022-10-09T20:59:02.075Z,7.53
2022-10-09T21:01:29.579Z,6.70
2022-10-09T21:03:59.041Z,7.18
2022-10-09T21:06:26.691Z,7.15
2022-10-09T21:08:56.047Z,7.22
2022-10-09T21:11:23.621Z,6.85
2022-10-09T21:13:51.496Z,6.20
2022-10-09T21:16:20.795Z,6.10
2022-10-09T21:21:17.527Z,6.50
2022-10-09T21:23:45.218Z,6.43
2022-10-09T21:26:13.356Z,6.28
2022-10-09T21:28:40.645Z,5.85
2022-10-09T21:31:08.744Z,5.57
2022-10-09T21:33:36.018Z,5.30
2022-10-09T21:36:03.284Z,6.13
2022-10-09T21:38:32.963Z,6.90
2022-10-09T21:41:00.282Z,6.07
2022-10-09T21:43:27.554Z,5.60
2022-10-09T21:45:54.763Z,5.60
2022-10-09T21:48:22.301Z,5.60
2022-10-09T21:50:49.599Z,5.63
2022-10-09T21:53:16.795Z,5.10
2022-10-09T21:55:44.169Z,5.35
2022-10-09T21:58:11.447Z,5.00
2022-10-09T22:00:38.997Z,4.93
2022-10-09T22:03:06.209Z,4.40
2022-10-09T22:05:33.498Z,4.40
2022-10-09T22:08:00.909Z,4.18
2022-10-09T22:10:29.214Z,4.03
2022-10-09T22:12:56.595Z,4.05
2022-10-09T22:15:23.858Z,4.50
2022-10-09T22:17:51.122Z,4.13
2022-10-09T22:20:18.388Z,4.25
2022-10-09T22:22:45.614Z,4.28
2022-10-09T22:25:12.843Z,3.92
2022-10-09T22:27:40.223Z,4.30
2022-10-09T22:30:07.848Z,4.47
2022-10-09T22:32:35.197Z,3.92
2022-10-09T22:35:02.551Z,4.00
2022-10-09T22:37:29.929Z,3.80
2022-10-09T22:39:57.280Z,3.80
2022-10-09T22:42:24.543Z,3.30
2022-10-09T22:44:51.751Z,3.95
2022-10-09T22:47:18.989Z,3.40
2022-10-09T22:49:46.279Z,3.80
2022-10-09T22:52:13.730Z,4.20
2022-10-09T22:54:41.174Z,3.53
2022-10-09T22:57:08.440Z,3.90
2022-10-09T22:59:35.947Z,3.42
2022-10-09T23:02:03.175Z,3.85
2022-10-09T23:04:30.601Z,3.60
2022-10-09T23:06:59.242Z,3.25
2022-10-09T23:09:28.908Z,3.40
2022-10-09T23:11:56.755Z,3.60
2022-10-09T23:14:24.542Z,3.78
2022-10-09T23:16:51.873Z,4.28
2022-10-09T23:19:19.183Z,3.70
2022-10-09T23:21:46.894Z,3.88
2022-10-09T23:24:17.435Z,4.03
2022-10-09T23:26:45.891Z,3.92
2022-10-09T23:29:14.693Z,3.55
2022-10-09T23:31:42.016Z,4.45
2022-10-09T23:34:09.371Z,3.90
2022-10-09T23:36:38.827Z,3.80
2022-10-09T23:39:06.778Z,3.92
2022-10-09T23:41:34.259Z,3.88
2022-10-09T23:44:01.699Z,3.38
2022-10-09T23:46:32.943Z,4.57
2022-10-09T23:49:00.430Z,4.07
2022-10-09T23:51:28.013Z,4.00
2022-10-09T23:53:55.345Z,4.18
2022-10-09T23:56:26.252Z,3.80
2022-10-09T23:58:54.501Z,3.95
